sensor_id;sensor_type;location;lat;lon;timestamp;pressure;altitude;pressure_sealevel;temperature;humidity
12077;BME280;12420;42.676;23.262;2024-03-23T00:53:54;94609.41;;;5.69;88.83
12077;BME280;12420;42.676;23.262;2024-03-23T00:56:20;94607.16;;;5.68;88.47
12077;BME280;12420;42.676;23.262;2024-03-23T00:58:47;94611.13;;;5.66;89.21
12077;BME280;12420;42.676;23.262;2024-03-23T01:01:13;94602.63;;;5.59;88.33
12077;BME280;12420;42.676;23.262;2024-03-23T01:03:39;94605.16;;;5.62;89.05
12077;BME280;12420;42.676;23.262;2024-03-23T01:06:05;94609.13;;;5.61;89.00
12077;BME280;12420;42.676;23.262;2024-03-23T01:08:32;94566.38;;;5.32;89.45
12077;BME280;12420;42.676;23.262;2024-03-23T01:11:00;94592.13;;;5.52;90.34
12077;BME280;12420;42.676;23.262;2024-03-23T01:13:28;94596.38;;;5.47;90.69
12077;BME280;12420;42.676;23.262;2024-03-23T01:15:54;94598.59;;;5.49;90.59
12077;BME280;12420;42.676;23.262;2024-03-23T01:18:22;94596.38;;;5.53;89.90
12077;BME280;12420;42.676;23.262;2024-03-23T01:20:48;94598.13;;;5.50;90.16
12077;BME280;12420;42.676;23.262;2024-03-23T01:23:15;94588.88;;;5.48;89.81
12077;BME280;12420;42.676;23.262;2024-03-23T01:25:41;94586.63;;;5.46;89.10
12077;BME280;12420;42.676;23.262;2024-03-23T01:28:09;94603.34;;;5.54;89.42
12077;BME280;12420;42.676;23.262;2024-03-23T01:30:35;94597.66;;;5.57;89.60
12077;BME280;12420;42.676;23.262;2024-03-23T01:33:02;94585.59;;;5.38;89.58
12077;BME280;12420;42.676;23.262;2024-03-23T01:35:28;94577.34;;;5.38;90.00
12077;BME280;12420;42.676;23.262;2024-03-23T01:37:55;94601.84;;;5.47;89.85
12077;BME280;12420;42.676;23.262;2024-03-23T01:40:21;94596.59;;;5.43;91.23
12077;BME280;12420;42.676;23.262;2024-03-23T01:42:56;94596.56;;;5.38;91.76
12077;BME280;12420;42.676;23.262;2024-03-23T01:45:24;94584.03;;;5.20;92.52
12077;BME280;12420;42.676;23.262;2024-03-23T01:47:51;94593.75;;;5.21;93.46
12077;BME280;12420;42.676;23.262;2024-03-23T01:50:18;94602.97;;;5.18;94.27
12077;BME280;12420;42.676;23.262;2024-03-23T01:52:45;94591.50;;;5.19;94.33
12077;BME280;12420;42.676;23.262;2024-03-23T01:55:11;94587.22;;;5.13;94.12
12077;BME280;12420;42.676;23.262;2024-03-23T01:57:37;94599.69;;;5.14;95.25
12077;BME280;12420;42.676;23.262;2024-03-23T02:00:04;94592.72;;;5.13;94.78
12077;BME280;12420;42.676;23.262;2024-03-23T02:02:33;94590.69;;;5.08;95.01
12077;BME280;12420;42.676;23.262;2024-03-23T02:04:58;94597.91;;;5.05;95.65
12077;BME280;12420;42.676;23.262;2024-03-23T02:07:25;94599.41;;;5.06;96.35
12077;BME280;12420;42.676;23.262;2024-03-23T02:09:51;94606.88;;;5.00;97.28
12077;BME280;12420;42.676;23.262;2024-03-23T02:12:18;94586.91;;;4.94;97.83
12077;BME280;12420;42.676;23.262;2024-03-23T02:14:44;94602.09;;;4.89;99.05
12077;BME280;12420;42.676;23.262;2024-03-23T02:17:10;94598.25;;;4.75;100.00
12077;BME280;12420;42.676;23.262;2024-03-23T02:19:38;94598.31;;;4.81;100.00
12077;BME280;12420;42.676;23.262;2024-03-23T02:22:04;94600.09;;;4.90;100.00
12077;BME280;12420;42.676;23.262;2024-03-23T02:24:31;94601.84;;;4.93;99.97
12077;BME280;12420;42.676;23.262;2024-03-23T02:26:59;94582.56;;;4.76;100.00
12077;BME280;12420;42.676;23.262;2024-03-23T02:29:25;94601.06;;;4.87;100.00
12077;BME280;12420;42.676;23.262;2024-03-23T02:31:52;94597.78;;;4.83;100.00
12077;BME280;12420;42.676;23.262;2024-03-23T02:34:17;94604.31;;;4.91;100.00
12077;BME280;12420;42.676;23.262;2024-03-23T02:36:44;94608.38;;;5.01;98.58
12077;BME280;12420;42.676;23.262;2024-03-23T02:39:10;94588.59;;;4.86;97.57
12077;BME280;12420;42.676;23.262;2024-03-23T02:41:38;94600.84;;;4.96;98.64
12077;BME280;12420;42.676;23.262;2024-03-23T02:44:04;94597.34;;;4.90;98.53
12077;BME280;12420;42.676;23.262;2024-03-23T02:46:31;94601.84;;;4.93;98.53
12077;BME280;12420;42.676;23.262;2024-03-23T02:48:56;94571.59;;;4.76;98.76
12077;BME280;12420;42.676;23.262;2024-03-23T02:51:23;94601.56;;;4.91;97.90
12077;BME280;12420;42.676;23.262;2024-03-23T02:53:49;94598.53;;;4.83;99.11
12077;BME280;12420;42.676;23.262;2024-03-23T02:56:16;94592.28;;;4.77;99.82
12077;BME280;12420;42.676;23.262;2024-03-23T02:58:43;94585.84;;;4.86;98.51
12077;BME280;12420;42.676;23.262;2024-03-23T03:01:10;94582.34;;;4.79;98.21
12077;BME280;12420;42.676;23.262;2024-03-23T03:03:36;94594.03;;;4.80;99.16
12077;BME280;12420;42.676;23.262;2024-03-23T03:06:03;94592.25;;;4.71;98.96
12077;BME280;12420;42.676;23.262;2024-03-23T03:08:29;94597.28;;;4.78;99.51
12077;BME280;12420;42.676;23.262;2024-03-23T03:10:56;94596.28;;;4.76;100.00
12077;BME280;12420;42.676;23.262;2024-03-23T03:13:21;94596.53;;;4.78;98.87
12077;BME280;12420;42.676;23.262;2024-03-23T03:15:49;94590.25;;;4.72;99.35
12077;BME280;12420;42.676;23.262;2024-03-23T03:18:15;94613.22;;;4.74;99.70
12077;BME280;12420;42.676;23.262;2024-03-23T03:20:42;94597.28;;;4.78;98.75
12077;BME280;12420;42.676;23.262;2024-03-23T03:23:08;94598.50;;;4.77;97.46
12077;BME280;12420;42.676;23.262;2024-03-23T03:25:35;94591.44;;;4.60;98.84
12077;BME280;12420;42.676;23.262;2024-03-23T03:28:00;94590.22;;;4.66;99.05
12077;BME280;12420;42.676;23.262;2024-03-23T03:30:27;94602.72;;;4.73;98.58
12077;BME280;12420;42.676;23.262;2024-03-23T03:32:54;94594.44;;;4.62;98.76
12077;BME280;12420;42.676;23.262;2024-03-23T03:35:21;94613.16;;;4.63;99.14
12077;BME280;12420;42.676;23.262;2024-03-23T03:37:47;94607.09;;;4.53;100.00
12077;BME280;12420;42.676;23.262;2024-03-23T03:40:14;94603.81;;;4.49;100.00
12077;BME280;12420;42.676;23.262;2024-03-23T03:42:40;94602.09;;;4.52;100.00
12077;BME280;12420;42.676;23.262;2024-03-23T03:45:07;94591.56;;;4.45;100.00
12077;BME280;12420;42.676;23.262;2024-03-23T03:47:33;94594.31;;;4.45;100.00
12077;BME280;12420;42.676;23.262;2024-03-23T03:50:01;94598.03;;;4.42;100.00
12077;BME280;12420;42.676;23.262;2024-03-23T03:52:27;94603.50;;;4.42;100.00
12077;BME280;12420;42.676;23.262;2024-03-23T03:55:01;94608.00;;;4.45;100.00
12077;BME280;12420;42.676;23.262;2024-03-23T03:57:28;94601.75;;;4.39;100.00
12077;BME280;12420;42.676;23.262;2024-03-23T03:59:55;94598.41;;;4.23;100.00
12077;BME280;12420;42.676;23.262;2024-03-23T04:02:20;94608.84;;;4.25;100.00
12077;BME280;12420;42.676;23.262;2024-03-23T04:04:47;94597.84;;;4.19;100.00
12077;BME280;12420;42.676;23.262;2024-03-23T04:07:14;94594.84;;;4.17;100.00
12077;BME280;12420;42.676;23.262;2024-03-23T04:09:42;94592.88;;;4.18;100.00
12077;BME280;12420;42.676;23.262;2024-03-23T04:12:09;94598.41;;;4.23;100.00
12077;BME280;12420;42.676;23.262;2024-03-23T04:14:35;94605.63;;;4.26;100.00
12077;BME280;12420;42.676;23.262;2024-03-23T04:17:02;94607.63;;;4.26;100.00
12077;BME280;12420;42.676;23.262;2024-03-23T04:19:28;94617.13;;;4.30;100.00
12077;BME280;12420;42.676;23.262;2024-03-23T04:21:54;94612.66;;;4.33;100.00
12077;BME280;12420;42.676;23.262;2024-03-23T04:24:22;94610.41;;;4.31;100.00
12077;BME280;12420;42.676;23.262;2024-03-23T04:26:49;94604.38;;;4.27;100.00
12077;BME280;12420;42.676;23.262;2024-03-23T04:29:16;94589.81;;;4.10;100.00
12077;BME280;12420;42.676;23.262;2024-03-23T04:31:42;94611.06;;;4.21;100.00
12077;BME280;12420;42.676;23.262;2024-03-23T04:34:08;94617.28;;;4.21;100.00
12077;BME280;12420;42.676;23.262;2024-03-23T04:36:34;94615.41;;;4.07;100.00
12077;BME280;12420;42.676;23.262;2024-03-23T04:39:01;94592.84;;;3.86;100.00
12077;BME280;12420;42.676;23.262;2024-03-23T04:41:29;94619.56;;;3.97;100.00
12077;BME280;12420;42.676;23.262;2024-03-23T04:43:56;94613.13;;;4.00;100.00
12077;BME280;12420;42.676;23.262;2024-03-23T04:46:24;94625.59;;;4.01;100.00
12077;BME280;12420;42.676;23.262;2024-03-23T04:48:51;94621.16;;;4.09;100.00
12077;BME280;12420;42.676;23.262;2024-03-23T04:51:21;94627.50;;;4.21;100.00
12077;BME280;12420;42.676;23.262;2024-03-23T04:53:48;94632.47;;;4.22;100.00
12077;BME280;12420;42.676;23.262;2024-03-23T04:56:14;94620.81;;;4.27;100.00
12077;BME280;12420;42.676;23.262;2024-03-23T04:58:42;94629.41;;;4.41;100.00
12077;BME280;12420;42.676;23.262;2024-03-23T05:01:09;94620.00;;;4.47;100.00
12077;BME280;12420;42.676;23.262;2024-03-23T05:03:35;94585.50;;;4.35;100.00
12077;BME280;12420;42.676;23.262;2024-03-23T05:06:01;94600.16;;;4.58;100.00
12077;BME280;12420;42.676;23.262;2024-03-23T05:08:27;94623.47;;;4.79;100.00
12077;BME280;12420;42.676;23.262;2024-03-23T05:10:54;94601.72;;;4.70;100.00
12077;BME280;12420;42.676;23.262;2024-03-23T05:13:20;94623.59;;;5.02;100.00
12077;BME280;12420;42.676;23.262;2024-03-23T05:15:52;94609.16;;;5.07;100.00
12077;BME280;12420;42.676;23.262;2024-03-23T05:18:18;94607.94;;;5.14;99.36
12077;BME280;12420;42.676;23.262;2024-03-23T05:20:45;94615.53;;;5.36;97.46
12077;BME280;12420;42.676;23.262;2024-03-23T05:23:10;94617.06;;;5.48;94.81
12077;BME280;12420;42.676;23.262;2024-03-23T05:25:37;94623.38;;;5.60;91.43
12077;BME280;12420;42.676;23.262;2024-03-23T05:28:03;94615.41;;;5.68;88.92
12077;BME280;12420;42.676;23.262;2024-03-23T05:30:30;94621.16;;;5.81;89.24
12077;BME280;12420;42.676;23.262;2024-03-23T05:32:57;94606.69;;;5.86;86.25
12077;BME280;12420;42.676;23.262;2024-03-23T05:35:24;94601.19;;;5.86;84.12
12077;BME280;12420;42.676;23.262;2024-03-23T05:37:50;94622.47;;;6.08;84.18
12077;BME280;12420;42.676;23.262;2024-03-23T05:40:17;94625.53;;;6.21;83.43
12077;BME280;12420;42.676;23.262;2024-03-23T05:42:42;94631.00;;;6.33;82.63
12077;BME280;12420;42.676;23.262;2024-03-23T05:45:09;94627.53;;;6.32;84.56
12077;BME280;12420;42.676;23.262;2024-03-23T05:47:35;94630.25;;;6.38;85.49
12077;BME280;12420;42.676;23.262;2024-03-23T05:50:03;94633.78;;;6.44;85.27
12077;BME280;12420;42.676;23.262;2024-03-23T05:52:29;94633.28;;;6.57;86.29
12077;BME280;12420;42.676;23.262;2024-03-23T05:54:56;94625.75;;;6.68;84.70
12077;BME280;12420;42.676;23.262;2024-03-23T05:57:22;94627.00;;;6.79;85.00
12077;BME280;12420;42.676;23.262;2024-03-23T05:59:48;94630.72;;;6.87;84.28
12077;BME280;12420;42.676;23.262;2024-03-23T06:02:14;94627.47;;;6.94;83.84
12077;BME280;12420;42.676;23.262;2024-03-23T06:04:41;94605.72;;;6.90;83.40
12077;BME280;12420;42.676;23.262;2024-03-23T06:07:08;94627.94;;;7.09;83.85
12077;BME280;12420;42.676;23.262;2024-03-23T06:09:39;94621.16;;;7.22;82.22
12077;BME280;12420;42.676;23.262;2024-03-23T06:12:05;94627.13;;;7.37;83.47
12077;BME280;12420;42.676;23.262;2024-03-23T06:14:32;94625.13;;;7.37;83.33
12077;BME280;12420;42.676;23.262;2024-03-23T06:16:58;94624.88;;;7.41;80.44
12077;BME280;12420;42.676;23.262;2024-03-23T06:19:25;94633.88;;;7.42;81.25
12077;BME280;12420;42.676;23.262;2024-03-23T06:21:52;94623.34;;;7.46;80.85
12077;BME280;12420;42.676;23.262;2024-03-23T06:24:21;94622.31;;;7.54;81.30
12077;BME280;12420;42.676;23.262;2024-03-23T06:26:47;94598.03;;;7.47;78.66
12077;BME280;12420;42.676;23.262;2024-03-23T06:29:14;94621.47;;;7.71;78.97
12077;BME280;12420;42.676;23.262;2024-03-23T06:31:40;94623.69;;;7.78;79.83
12077;BME280;12420;42.676;23.262;2024-03-23T06:34:06;94623.38;;;7.93;78.82
12077;BME280;12420;42.676;23.262;2024-03-23T06:36:32;94627.94;;;7.85;78.57
12077;BME280;12420;42.676;23.262;2024-03-23T06:38:59;94628.19;;;7.87;77.62
12077;BME280;12420;42.676;23.262;2024-03-23T06:41:26;94631.34;;;8.02;76.62
12077;BME280;12420;42.676;23.262;2024-03-23T06:43:53;94621.84;;;7.97;75.13
12077;BME280;12420;42.676;23.262;2024-03-23T06:46:20;94625.00;;;8.13;75.10
12077;BME280;12420;42.676;23.262;2024-03-23T06:48:46;94617.72;;;8.15;75.65
12077;BME280;12420;42.676;23.262;2024-03-23T06:51:12;94608.75;;;8.09;74.78
12077;BME280;12420;42.676;23.262;2024-03-23T06:53:38;94624.00;;;8.16;75.93
12077;BME280;12420;42.676;23.262;2024-03-23T06:56:05;94626.50;;;8.14;74.77
12077;BME280;12420;42.676;23.262;2024-03-23T06:58:32;94641.47;;;8.30;73.07
12077;BME280;12420;42.676;23.262;2024-03-23T07:00:59;94624.94;;;8.24;71.75
12077;BME280;12420;42.676;23.262;2024-03-23T07:03:25;94626.56;;;8.44;72.13
12077;BME280;12420;42.676;23.262;2024-03-23T07:05:52;94609.97;;;8.55;70.11
12077;BME280;12420;42.676;23.262;2024-03-23T07:08:18;94624.38;;;8.67;69.25
12077;BME280;12420;42.676;23.262;2024-03-23T07:10:47;94620.56;;;8.76;68.66
12077;BME280;12420;42.676;23.262;2024-03-23T07:13:13;94607.34;;;8.68;70.66
12077;BME280;12420;42.676;23.262;2024-03-23T07:15:41;94617.19;;;8.88;69.30
12077;BME280;12420;42.676;23.262;2024-03-23T07:18:07;94616.56;;;9.01;68.05
12077;BME280;12420;42.676;23.262;2024-03-23T07:20:33;94582.84;;;8.84;67.39
12077;BME280;12420;42.676;23.262;2024-03-23T07:22:59;94613.00;;;9.06;68.85
12077;BME280;12420;42.676;23.262;2024-03-23T07:25:26;94605.16;;;9.10;70.01
12077;BME280;12420;42.676;23.262;2024-03-23T07:27:53;94587.13;;;9.09;67.93
12077;BME280;12420;42.676;23.262;2024-03-23T07:30:20;94603.69;;;9.34;67.13
12077;BME280;12420;42.676;23.262;2024-03-23T07:32:47;94596.22;;;9.48;66.50
12077;BME280;12420;42.676;23.262;2024-03-23T07:35:14;94592.56;;;9.59;66.13
12077;BME280;12420;42.676;23.262;2024-03-23T07:37:39;94586.81;;;9.56;66.42
12077;BME280;12420;42.676;23.262;2024-03-23T07:40:07;94606.34;;;9.64;66.19
12077;BME280;12420;42.676;23.262;2024-03-23T07:42:33;94596.47;;;9.69;66.46
12077;BME280;12420;42.676;23.262;2024-03-23T07:44:59;94601.19;;;9.74;64.15
12077;BME280;12420;42.676;23.262;2024-03-23T07:47:25;94602.47;;;9.73;64.31
12077;BME280;12420;42.676;23.262;2024-03-23T07:49:53;94589.22;;;9.66;64.49
12077;BME280;12420;42.676;23.262;2024-03-23T07:52:19;94596.03;;;9.84;64.59
12077;BME280;12420;42.676;23.262;2024-03-23T07:54:46;94584.88;;;9.89;64.67
12077;BME280;12420;42.676;23.262;2024-03-23T07:57:12;94592.75;;;9.85;64.93
12077;BME280;12420;42.676;23.262;2024-03-23T07:59:39;94586.56;;;9.98;63.64
12077;BME280;12420;42.676;23.262;2024-03-23T08:02:05;94584.53;;;9.98;63.21
12077;BME280;12420;42.676;23.262;2024-03-23T08:04:31;94584.06;;;10.13;63.95
12077;BME280;12420;42.676;23.262;2024-03-23T08:06:58;94579.50;;;10.16;64.01
12077;BME280;12420;42.676;23.262;2024-03-23T08:09:26;94580.97;;;10.17;63.63
12077;BME280;12420;42.676;23.262;2024-03-23T08:11:51;94585.03;;;10.35;62.00
12077;BME280;12420;42.676;23.262;2024-03-23T08:14:18;94584.19;;;10.40;62.95
12077;BME280;12420;42.676;23.262;2024-03-23T08:16:45;94579.63;;;10.42;62.35
12077;BME280;12420;42.676;23.262;2024-03-23T08:19:14;94572.91;;;10.38;63.03
12077;BME280;12420;42.676;23.262;2024-03-23T08:21:40;94577.19;;;10.52;61.75
12077;BME280;12420;42.676;23.262;2024-03-23T08:24:08;94574.78;;;10.62;62.20
12077;BME280;12420;42.676;23.262;2024-03-23T08:26:34;94576.50;;;10.78;63.30
12077;BME280;12420;42.676;23.262;2024-03-23T08:29:03;94575.88;;;10.85;63.17
12077;BME280;12420;42.676;23.262;2024-03-23T08:31:28;94571.88;;;11.00;62.76
12077;BME280;12420;42.676;23.262;2024-03-23T08:33:55;94573.78;;;11.05;60.77
12077;BME280;12420;42.676;23.262;2024-03-23T08:36:21;94567.81;;;11.14;59.27
12077;BME280;12420;42.676;23.262;2024-03-23T08:38:47;94562.06;;;11.25;59.79
12077;BME280;12420;42.676;23.262;2024-03-23T08:41:17;94565.47;;;11.32;59.21
12077;BME280;12420;42.676;23.262;2024-03-23T08:43:44;94561.00;;;11.42;59.07
12077;BME280;12420;42.676;23.262;2024-03-23T08:46:10;94563.56;;;11.53;59.18
12077;BME280;12420;42.676;23.262;2024-03-23T08:48:39;94552.09;;;11.70;59.98
12077;BME280;12420;42.676;23.262;2024-03-23T08:51:06;94548.38;;;11.81;58.44
12077;BME280;12420;42.676;23.262;2024-03-23T08:53:33;94543.22;;;11.85;57.57
12077;BME280;12420;42.676;23.262;2024-03-23T08:56:00;94542.72;;;11.86;57.32
12077;BME280;12420;42.676;23.262;2024-03-23T08:58:29;94544.84;;;11.93;56.83
12077;BME280;12420;42.676;23.262;2024-03-23T09:01:02;94537.22;;;12.07;56.55
12077;BME280;12420;42.676;23.262;2024-03-23T09:03:29;94537.34;;;12.23;56.99
12077;BME280;12420;42.676;23.262;2024-03-23T09:05:55;94535.38;;;12.10;56.48
12077;BME280;12420;42.676;23.262;2024-03-23T09:08:23;94537.28;;;12.15;56.52
12077;BME280;12420;42.676;23.262;2024-03-23T09:10:49;94529.16;;;12.17;55.98
12077;BME280;12420;42.676;23.262;2024-03-23T09:13:16;94536.16;;;12.31;55.80
12077;BME280;12420;42.676;23.262;2024-03-23T09:15:47;94523.16;;;12.47;54.25
12077;BME280;12420;42.676;23.262;2024-03-23T09:18:15;94527.16;;;12.59;53.73
12077;BME280;12420;42.676;23.262;2024-03-23T09:20:40;94511.50;;;12.70;54.17
12077;BME280;12420;42.676;23.262;2024-03-23T09:23:07;94512.56;;;12.67;53.35
12077;BME280;12420;42.676;23.262;2024-03-23T09:25:36;94491.91;;;12.75;53.61
12077;BME280;12420;42.676;23.262;2024-03-23T09:28:03;94506.44;;;12.89;51.42
12077;BME280;12420;42.676;23.262;2024-03-23T09:30:29;94499.59;;;12.90;51.52
12077;BME280;12420;42.676;23.262;2024-03-23T09:32:57;94504.59;;;12.92;50.05
12077;BME280;12420;42.676;23.262;2024-03-23T09:35:22;94490.44;;;12.82;52.25
12077;BME280;12420;42.676;23.262;2024-03-23T09:37:49;94487.81;;;12.76;51.53
12077;BME280;12420;42.676;23.262;2024-03-23T09:40:15;94478.41;;;12.79;51.49
12077;BME280;12420;42.676;23.262;2024-03-23T09:42:42;94473.03;;;12.81;50.96
12077;BME280;12420;42.676;23.262;2024-03-23T09:45:20;94471.09;;;12.97;50.82
12077;BME280;12420;42.676;23.262;2024-03-23T09:47:48;94473.59;;;13.09;51.39
12077;BME280;12420;42.676;23.262;2024-03-23T09:50:16;94452.59;;;13.29;51.88
12077;BME280;12420;42.676;23.262;2024-03-23T09:52:42;94469.50;;;13.38;49.57
12077;BME280;12420;42.676;23.262;2024-03-23T09:55:08;94465.44;;;13.47;49.90
12077;BME280;12420;42.676;23.262;2024-03-23T09:57:35;94457.53;;;13.59;49.28
12077;BME280;12420;42.676;23.262;2024-03-23T10:00:01;94455.72;;;13.77;46.36
12077;BME280;12420;42.676;23.262;2024-03-23T10:02:28;94447.41;;;13.84;47.30
12077;BME280;12420;42.676;23.262;2024-03-23T10:04:54;94438.28;;;13.92;47.22
12077;BME280;12420;42.676;23.262;2024-03-23T10:07:25;94437.56;;;13.99;45.99
12077;BME280;12420;42.676;23.262;2024-03-23T10:09:53;94433.69;;;14.02;46.49
12077;BME280;12420;42.676;23.262;2024-03-23T10:12:19;94424.78;;;13.96;45.46
12077;BME280;12420;42.676;23.262;2024-03-23T10:14:46;94423.50;;;14.04;45.60
12077;BME280;12420;42.676;23.262;2024-03-23T10:17:13;94422.00;;;14.11;45.83
12077;BME280;12420;42.676;23.262;2024-03-23T10:19:41;94422.59;;;14.25;45.78
12077;BME280;12420;42.676;23.262;2024-03-23T10:22:08;94416.63;;;14.36;46.70
12077;BME280;12420;42.676;23.262;2024-03-23T10:24:37;94416.25;;;14.40;45.13
12077;BME280;12420;42.676;23.262;2024-03-23T10:27:03;94412.38;;;14.35;44.45
12077;BME280;12420;42.676;23.262;2024-03-23T10:29:29;94412.19;;;14.25;45.29
12077;BME280;12420;42.676;23.262;2024-03-23T10:32:08;94410.13;;;14.33;44.33
12077;BME280;12420;42.676;23.262;2024-03-23T10:34:33;94404.94;;;14.38;45.25
12077;BME280;12420;42.676;23.262;2024-03-23T10:37:02;94398.78;;;14.47;44.26
12077;BME280;12420;42.676;23.262;2024-03-23T10:39:30;94389.91;;;14.56;44.15
12077;BME280;12420;42.676;23.262;2024-03-23T10:42:00;94389.34;;;14.58;43.00
12077;BME280;12420;42.676;23.262;2024-03-23T10:44:28;94379.50;;;14.57;43.75
12077;BME280;12420;42.676;23.262;2024-03-23T10:46:56;94364.09;;;14.63;44.00
12077;BME280;12420;42.676;23.262;2024-03-23T10:49:25;94355.56;;;14.61;43.10
12077;BME280;12420;42.676;23.262;2024-03-23T10:51:55;94353.47;;;14.77;43.04
12077;BME280;12420;42.676;23.262;2024-03-23T10:54:21;94341.22;;;14.65;43.56
12077;BME280;12420;42.676;23.262;2024-03-23T10:56:49;94344.72;;;14.81;42.81
12077;BME280;12420;42.676;23.262;2024-03-23T10:59:18;94336.50;;;14.90;43.30
12077;BME280;12420;42.676;23.262;2024-03-23T11:01:54;94336.84;;;15.02;44.03
12077;BME280;12420;42.676;23.262;2024-03-23T11:04:29;94322.31;;;15.11;42.17
12077;BME280;12420;42.676;23.262;2024-03-23T11:06:56;94337.53;;;15.10;41.87
12077;BME280;12420;42.676;23.262;2024-03-23T11:09:41;94322.22;;;14.86;42.38
12077;BME280;12420;42.676;23.262;2024-03-23T11:12:26;94317.16;;;15.00;42.72
12077;BME280;12420;42.676;23.262;2024-03-23T11:14:55;94309.16;;;15.04;43.10
12077;BME280;12420;42.676;23.262;2024-03-23T11:17:23;94299.06;;;15.16;42.35
12077;BME280;12420;42.676;23.262;2024-03-23T11:19:53;94296.59;;;15.20;42.10
12077;BME280;12420;42.676;23.262;2024-03-23T11:22:41;94295.88;;;15.20;40.99
12077;BME280;12420;42.676;23.262;2024-03-23T11:25:17;94283.63;;;15.15;40.69
12077;BME280;12420;42.676;23.262;2024-03-23T11:27:46;94295.56;;;15.41;40.61
12077;BME280;12420;42.676;23.262;2024-03-23T11:30:15;94268.81;;;15.38;41.55
12077;BME280;12420;42.676;23.262;2024-03-23T11:32:43;94291.88;;;15.63;39.99
12077;BME280;12420;42.676;23.262;2024-03-23T11:35:27;94278.41;;;15.77;40.74
12077;BME280;12420;42.676;23.262;2024-03-23T11:38:06;94278.00;;;15.81;39.19
12077;BME280;12420;42.676;23.262;2024-03-23T11:40:33;94281.28;;;15.87;39.59
12077;BME280;12420;42.676;23.262;2024-03-23T11:43:01;94259.38;;;15.83;39.48
12077;BME280;12420;42.676;23.262;2024-03-23T11:45:29;94257.56;;;15.78;40.31
12077;BME280;12420;42.676;23.262;2024-03-23T11:48:08;94261.53;;;15.93;39.50
12077;BME280;12420;42.676;23.262;2024-03-23T11:50:36;94252.03;;;15.71;37.50
12077;BME280;12420;42.676;23.262;2024-03-23T11:53:22;94250.75;;;15.89;37.84
12077;BME280;12420;42.676;23.262;2024-03-23T11:55:49;94233.63;;;15.93;37.80
12077;BME280;12420;42.676;23.262;2024-03-23T11:58:17;94222.59;;;15.95;36.75
12077;BME280;12420;42.676;23.262;2024-03-23T12:00:49;94229.19;;;16.07;31.39
12077;BME280;12420;42.676;23.262;2024-03-23T12:03:17;94230.03;;;16.17;30.97
12077;BME280;12420;42.676;23.262;2024-03-23T12:05:48;94220.56;;;16.13;30.20
12077;BME280;12420;42.676;23.262;2024-03-23T12:08:20;94193.66;;;15.90;29.14
12077;BME280;12420;42.676;23.262;2024-03-23T12:10:48;94208.41;;;16.18;29.42
12077;BME280;12420;42.676;23.262;2024-03-23T12:13:17;94206.06;;;16.14;28.85
12077;BME280;12420;42.676;23.262;2024-03-23T12:15:45;94204.16;;;15.99;28.61
12077;BME280;12420;42.676;23.262;2024-03-23T12:18:12;94193.00;;;15.99;28.01
12077;BME280;12420;42.676;23.262;2024-03-23T12:20:38;94191.34;;;16.14;27.88
12077;BME280;12420;42.676;23.262;2024-03-23T12:23:09;94203.91;;;16.22;27.62
12077;BME280;12420;42.676;23.262;2024-03-23T12:25:37;94190.84;;;16.25;27.05
12077;BME280;12420;42.676;23.262;2024-03-23T12:28:04;94190.38;;;16.36;27.62
12077;BME280;12420;42.676;23.262;2024-03-23T12:30:32;94185.31;;;16.52;27.32
12077;BME280;12420;42.676;23.262;2024-03-23T12:33:00;94178.25;;;16.51;26.72
12077;BME280;12420;42.676;23.262;2024-03-23T12:35:26;94176.41;;;16.63;26.71
12077;BME280;12420;42.676;23.262;2024-03-23T12:37:53;94168.78;;;16.64;26.50
12077;BME280;12420;42.676;23.262;2024-03-23T12:40:18;94162.06;;;16.49;26.72
12077;BME280;12420;42.676;23.262;2024-03-23T12:42:45;94152.94;;;16.66;27.08
12077;BME280;12420;42.676;23.262;2024-03-23T12:45:11;94160.25;;;16.62;26.15
12077;BME280;12420;42.676;23.262;2024-03-23T12:47:37;94159.41;;;16.69;26.62
12077;BME280;12420;42.676;23.262;2024-03-23T12:50:05;94155.22;;;16.78;26.46
12077;BME280;12420;42.676;23.262;2024-03-23T12:52:32;94145.91;;;16.75;26.09
12077;BME280;12420;42.676;23.262;2024-03-23T12:54:58;94148.06;;;16.84;26.87
12077;BME280;12420;42.676;23.262;2024-03-23T12:57:25;94128.25;;;16.73;26.61
12077;BME280;12420;42.676;23.262;2024-03-23T12:59:51;94137.78;;;16.97;26.27
12077;BME280;12420;42.676;23.262;2024-03-23T13:02:19;94139.56;;;17.02;26.58
12077;BME280;12420;42.676;23.262;2024-03-23T13:04:46;94138.16;;;17.10;26.54
12077;BME280;12420;42.676;23.262;2024-03-23T13:07:17;94129.03;;;17.10;25.99
12077;BME280;12420;42.676;23.262;2024-03-23T13:09:43;94126.06;;;17.08;26.29
12077;BME280;12420;42.676;23.262;2024-03-23T13:12:10;94114.81;;;16.88;26.57
12077;BME280;12420;42.676;23.262;2024-03-23T13:14:37;94125.59;;;16.92;26.54
12077;BME280;12420;42.676;23.262;2024-03-23T13:17:04;94125.59;;;17.02;26.55
12077;BME280;12420;42.676;23.262;2024-03-23T13:19:30;94120.47;;;17.08;26.71
12077;BME280;12420;42.676;23.262;2024-03-23T13:21:57;94116.97;;;17.17;26.90
12077;BME280;12420;42.676;23.262;2024-03-23T13:24:24;94111.53;;;17.19;26.40
12077;BME280;12420;42.676;23.262;2024-03-23T13:26:52;94104.19;;;17.24;26.31
12077;BME280;12420;42.676;23.262;2024-03-23T13:29:18;94108.75;;;17.19;27.23
12077;BME280;12420;42.676;23.262;2024-03-23T13:31:45;94107.31;;;17.28;26.38
12077;BME280;12420;42.676;23.262;2024-03-23T13:34:11;94102.59;;;17.30;26.38
12077;BME280;12420;42.676;23.262;2024-03-23T13:36:38;94061.78;;;17.08;26.61
12077;BME280;12420;42.676;23.262;2024-03-23T13:39:04;94091.84;;;17.27;27.07
12077;BME280;12420;42.676;23.262;2024-03-23T13:41:38;94084.03;;;17.35;27.43
12077;BME280;12420;42.676;23.262;2024-03-23T13:44:05;94091.00;;;17.53;27.49
12077;BME280;12420;42.676;23.262;2024-03-23T13:46:32;94072.00;;;17.52;27.88
12077;BME280;12420;42.676;23.262;2024-03-23T13:48:58;94067.00;;;17.60;27.78